createdAt,value
2019-04-28T00:02:16.573Z,-68
2019-04-28T00:04:49.327Z,-69
2019-04-28T00:07:22.028Z,-68
2019-04-28T00:09:54.151Z,-69
2019-04-28T00:12:27.130Z,-69
2019-04-28T00:15:02.266Z,-69
2019-04-28T00:17:34.423Z,-68
2019-04-28T00:20:12.699Z,-69
2019-04-28T00:22:57.618Z,-69
2019-04-28T00:25:31.930Z,-69
2019-04-28T00:28:04.609Z,-69
2019-04-28T00:30:37.136Z,-69
2019-04-28T00:33:09.661Z,-70
2019-04-28T00:35:41.929Z,-69
2019-04-28T00:38:14.621Z,-68
2019-04-28T00:40:46.881Z,-69
2019-04-28T00:43:19.052Z,-69
2019-04-28T00:45:51.332Z,-69
2019-04-28T00:48:23.906Z,-68
2019-04-28T00:50:56.796Z,-69
2019-04-28T00:53:31.013Z,-69
2019-04-28T00:56:02.747Z,-69
2019-04-28T00:58:33.713Z,-71
2019-04-28T01:01:11.351Z,-71
2019-04-28T01:03:44.067Z,-68
2019-04-28T01:06:16.875Z,-68
2019-04-28T01:08:49.352Z,-69
2019-04-28T01:11:22.108Z,-68
2019-04-28T01:13:54.902Z,-69
2019-04-28T01:16:36.605Z,-68
2019-04-28T01:19:14.341Z,-69
2019-04-28T01:22:04.701Z,-69
2019-04-28T01:24:35.977Z,-67
2019-04-28T01:27:10.572Z,-66
2019-04-28T01:29:43.036Z,-69
2019-04-28T01:32:43.471Z,-68
2019-04-28T01:35:16.000Z,-69
2019-04-28T01:37:50.519Z,-68
2019-04-28T01:40:23.029Z,-69
2019-04-28T01:42:56.356Z,-69
2019-04-28T01:45:30.069Z,-69
2019-04-28T01:48:02.966Z,-69
2019-04-28T01:50:35.091Z,-68
2019-04-28T01:53:09.362Z,-69
2019-04-28T01:55:41.149Z,-69
2019-04-28T01:58:14.058Z,-69
2019-04-28T02:00:46.874Z,-68
2019-04-28T02:03:20.532Z,-68
2019-04-28T02:05:53.061Z,-69
2019-04-28T02:08:25.406Z,-68
2019-04-28T02:11:00.000Z,-68
2019-04-28T02:13:31.904Z,-69
2019-04-28T02:16:04.036Z,-69
2019-04-28T02:18:36.343Z,-68
2019-04-28T02:21:25.621Z,-68
2019-04-28T02:24:16.527Z,-68
2019-04-28T02:26:52.288Z,-68
2019-04-28T02:29:23.407Z,-68
2019-04-28T02:32:02.113Z,-68
2019-04-28T02:34:34.092Z,-68
2019-04-28T02:37:06.468Z,-68
2019-04-28T02:39:40.983Z,-69
2019-04-28T02:42:13.051Z,-68
2019-04-28T02:44:45.351Z,-68
2019-04-28T02:47:17.869Z,-68
2019-04-28T02:50:01.863Z,-68
2019-04-28T02:52:52.008Z,-68
2019-04-28T02:55:25.017Z,-68
2019-04-28T02:57:57.093Z,-68
2019-04-28T03:00:31.745Z,-68
2019-04-28T03:03:04.997Z,-68
2019-04-28T03:05:37.077Z,-69
2019-04-28T03:08:11.186Z,-68
2019-04-28T03:10:43.899Z,-68
2019-04-28T03:13:16.030Z,-68
2019-04-28T03:15:51.252Z,-68
2019-04-28T03:18:22.853Z,-68
2019-04-28T03:20:54.954Z,-68
2019-04-28T03:23:27.405Z,-68
2019-04-28T03:26:24.723Z,-68
2019-04-28T03:29:14.889Z,-68
2019-04-28T03:32:30.073Z,-68
2019-04-28T03:34:53.076Z,-68
2019-04-28T03:37:24.234Z,-68
2019-04-28T03:40:00.326Z,-69
2019-04-28T03:42:31.529Z,-68
2019-04-28T03:45:04.379Z,-68
2019-04-28T03:47:36.898Z,-68
2019-04-28T03:50:10.412Z,-68
2019-04-28T03:52:42.860Z,-68
2019-04-28T03:55:15.097Z,-68
2019-04-28T03:57:47.877Z,-68
2019-04-28T04:00:22.020Z,-68
2019-04-28T04:02:53.914Z,-68
2019-04-28T04:05:26.380Z,-68
2019-04-28T04:08:00.794Z,-68
2019-04-28T04:10:53.656Z,-68
2019-04-28T04:13:45.298Z,-68
2019-04-28T04:16:35.581Z,-68
2019-04-28T04:19:10.614Z,-68
2019-04-28T04:21:42.882Z,-67
2019-04-28T04:24:14.991Z,-68
2019-04-28T04:26:47.373Z,-68
2019-04-28T04:29:21.697Z,-68
2019-04-28T04:32:10.048Z,-67
2019-04-28T04:34:30.121Z,-69
2019-04-28T04:37:02.132Z,-69
2019-04-28T04:39:35.325Z,-69
2019-04-28T04:42:10.367Z,-69
2019-04-28T04:44:42.324Z,-69
2019-04-28T04:47:14.850Z,-69
2019-04-28T04:49:47.348Z,-71
2019-04-28T04:52:20.406Z,-69
2019-04-28T04:54:52.907Z,-68
2019-04-28T04:57:25.485Z,-69
2019-04-28T04:59:59.905Z,-69
2019-04-28T05:02:41.138Z,-69
2019-04-28T05:05:20.279Z,-68
2019-04-28T05:07:52.897Z,-67
2019-04-28T05:10:25.583Z,-68
2019-04-28T05:12:58.040Z,-69
2019-04-28T05:15:31.348Z,-68
2019-04-28T05:18:04.019Z,-68
2019-04-28T05:20:36.175Z,-69
2019-04-28T05:23:29.719Z,-68
2019-04-28T05:26:08.173Z,-67
2019-04-28T05:28:36.904Z,-68
2019-04-28T05:31:13.570Z,-68
2019-04-28T05:33:44.881Z,-71
2019-04-28T05:36:17.034Z,-69
2019-04-28T05:38:50.019Z,-69
2019-04-28T05:41:22.379Z,-71
2019-04-28T05:43:55.318Z,-72
2019-04-28T05:46:29.991Z,-71
2019-04-28T05:49:10.185Z,-71
2019-04-28T05:51:44.371Z,-69
2019-04-28T05:54:31.487Z,-70
2019-04-28T05:57:20.696Z,-69
2019-04-28T06:00:21.091Z,-69
2019-04-28T06:02:56.903Z,-70
2019-04-28T06:05:30.335Z,-70
2019-04-28T06:08:20.207Z,-70
2019-04-28T06:10:52.849Z,-70
2019-04-28T06:13:25.091Z,-69
2019-04-28T06:15:59.745Z,-70
2019-04-28T06:18:31.883Z,-70
2019-04-28T06:21:06.320Z,-69
2019-04-28T06:23:38.869Z,-70
2019-04-28T06:26:10.852Z,-69
2019-04-28T06:28:42.954Z,-70
2019-04-28T06:31:15.401Z,-70
2019-04-28T06:33:48.316Z,-70
2019-04-28T06:36:21.058Z,-70
2019-04-28T06:38:53.879Z,-69
2019-04-28T06:41:26.064Z,-70
2019-04-28T06:43:58.327Z,-70
2019-04-28T06:46:30.898Z,-70
2019-04-28T06:49:03.315Z,-70
2019-04-28T06:51:35.997Z,-69
2019-04-28T06:54:08.326Z,-70
2019-04-28T06:56:40.882Z,-70
2019-04-28T06:59:13.927Z,-70
2019-04-28T07:01:46.491Z,-70
2019-04-28T07:04:20.292Z,-70
2019-04-28T07:06:54.453Z,-70
2019-04-28T07:09:26.943Z,-71
2019-04-28T07:12:00.344Z,-70
2019-04-28T07:14:32.938Z,-70
2019-04-28T07:17:05.389Z,-70
2019-04-28T07:19:38.285Z,-70
2019-04-28T07:22:15.803Z,-71
2019-04-28T07:24:49.611Z,-71
2019-04-28T07:27:22.904Z,-70
2019-04-28T07:29:55.901Z,-70
2019-04-28T07:32:29.098Z,-70
2019-04-28T07:35:02.805Z,-70
2019-04-28T07:37:36.738Z,-70
2019-04-28T07:40:08.278Z,-70
2019-04-28T07:42:40.994Z,-70
2019-04-28T07:45:13.365Z,-70
2019-04-28T07:47:45.831Z,-71
2019-04-28T07:50:18.209Z,-70
2019-04-28T07:53:00.805Z,-70
2019-04-28T07:55:34.469Z,-70
2019-04-28T07:58:07.662Z,-70
2019-04-28T08:00:41.317Z,-69
2019-04-28T08:03:15.607Z,-69
2019-04-28T08:05:52.771Z,-70
2019-04-28T08:08:24.704Z,-70
2019-04-28T08:10:55.727Z,-70
2019-04-28T08:13:27.905Z,-70
2019-04-28T08:15:59.881Z,-70
2019-04-28T08:18:32.324Z,-70
2019-04-28T08:21:04.852Z,-70
2019-04-28T08:23:46.562Z,-70
2019-04-28T08:26:10.824Z,-70
2019-04-28T08:28:43.874Z,-71
2019-04-28T08:31:17.913Z,-70
2019-04-28T08:34:02.263Z,-70
2019-04-28T08:36:28.394Z,-69
2019-04-28T08:39:00.883Z,-71
2019-04-28T08:41:33.421Z,-70
2019-04-28T08:44:07.323Z,-71
2019-04-28T08:46:40.340Z,-70
2019-04-28T08:49:13.478Z,-70
2019-04-28T08:51:47.369Z,-70
2019-04-28T08:54:20.595Z,-70
2019-04-28T08:56:52.515Z,-70
2019-04-28T08:59:24.309Z,-69
2019-04-28T09:01:58.879Z,-69
2019-04-28T09:04:31.373Z,-70
2019-04-28T09:07:16.749Z,-71
2019-04-28T09:12:33.601Z,-68
2019-04-28T09:15:07.316Z,-72
2019-04-28T09:17:40.094Z,-69
2019-04-28T09:20:13.108Z,-72
2019-04-28T09:22:46.876Z,-71
2019-04-28T09:25:19.952Z,-72
2019-04-28T09:27:56.040Z,-71
2019-04-28T09:30:29.330Z,-69
2019-04-28T09:33:01.505Z,-71
2019-04-28T09:35:34.083Z,-71
2019-04-28T09:38:06.881Z,-72
2019-04-28T09:40:39.311Z,-71
2019-04-28T09:43:18.073Z,-71
2019-04-28T09:46:06.034Z,-69
2019-04-28T09:48:39.503Z,-71
2019-04-28T09:51:14.685Z,-71
2019-04-28T09:53:46.285Z,-69
2019-04-28T09:56:21.493Z,-71
2019-04-28T09:58:54.042Z,-69
2019-04-28T10:01:27.151Z,-69
2019-04-28T10:03:59.479Z,-69
2019-04-28T10:06:32.408Z,-69
2019-04-28T10:09:05.339Z,-70
2019-04-28T10:11:38.332Z,-69
2019-04-28T10:14:10.916Z,-69
2019-04-28T10:16:43.672Z,-70
2019-04-28T10:19:16.069Z,-72
2019-04-28T10:21:48.324Z,-69
2019-04-28T10:24:20.887Z,-70
2019-04-28T10:26:53.450Z,-68
2019-04-28T10:29:26.059Z,-69
2019-04-28T10:31:58.873Z,-68
2019-04-28T10:34:31.466Z,-69
2019-04-28T10:37:05.346Z,-71
2019-04-28T10:39:57.100Z,-69
2019-04-28T10:42:29.548Z,-71
2019-04-28T10:45:03.857Z,-70
2019-04-28T10:47:43.467Z,-70
2019-04-28T10:50:16.765Z,-70
2019-04-28T10:52:48.863Z,-70
2019-04-28T10:55:21.928Z,-71
2019-04-28T10:57:54.459Z,-70
2019-04-28T11:00:37.077Z,-70
2019-04-28T11:03:10.634Z,-71
2019-04-28T11:05:47.099Z,-69
2019-04-28T11:08:31.348Z,-69
2019-04-28T11:11:09.807Z,-69
2019-04-28T11:13:54.324Z,-69
2019-04-28T11:16:35.467Z,-69
2019-04-28T11:19:07.966Z,-70
2019-04-28T11:21:39.872Z,-69
2019-04-28T11:24:12.435Z,-70
2019-04-28T11:26:44.867Z,-69
2019-04-28T11:29:16.898Z,-69
2019-04-28T11:31:49.411Z,-69
2019-04-28T11:34:46.580Z,-70
2019-04-28T11:37:19.168Z,-69
2019-04-28T11:39:52.905Z,-70
2019-04-28T11:42:28.644Z,-70
2019-04-28T11:44:59.960Z,-71
2019-04-28T11:47:32.917Z,-70
2019-04-28T11:50:05.365Z,-70
2019-04-28T11:52:37.858Z,-70
2019-04-28T11:55:10.127Z,-70
2019-04-28T11:57:44.501Z,-69
2019-04-28T12:00:35.321Z,-69
2019-04-28T12:03:09.363Z,-67
2019-04-28T12:05:47.607Z,-70
2019-04-28T12:08:20.325Z,-68
2019-04-28T12:11:04.697Z,-71
2019-04-28T12:14:00.344Z,-71
2019-04-28T12:16:54.510Z,-68
2019-04-28T12:19:41.323Z,-70
2019-04-28T12:22:14.094Z,-68
2019-04-28T12:24:47.039Z,-69
2019-04-28T12:27:24.368Z,-69
2019-04-28T12:29:57.045Z,-68
2019-04-28T12:32:29.922Z,-71
2019-04-28T12:35:02.164Z,-71
2019-04-28T12:37:35.167Z,-67
2019-04-28T12:40:08.027Z,-69
2019-04-28T12:42:40.642Z,-67
2019-04-28T12:45:12.296Z,-69
2019-04-28T12:47:45.138Z,-69
2019-04-28T12:50:28.587Z,-68
2019-04-28T12:53:00.910Z,-68
2019-04-28T12:55:35.415Z,-67
2019-04-28T12:58:07.926Z,-68
2019-04-28T13:00:59.551Z,-67
2019-04-28T13:03:37.763Z,-68
2019-04-28T13:06:10.624Z,-69
2019-04-28T13:08:43.312Z,-68
2019-04-28T13:11:16.405Z,-68
2019-04-28T13:13:49.087Z,-71
2019-04-28T13:16:27.231Z,-71
2019-04-28T13:19:00.396Z,-69
2019-04-28T13:21:40.752Z,-68
2019-04-28T13:24:20.442Z,-68
2019-04-28T13:26:54.178Z,-70
2019-04-28T13:29:27.427Z,-68
2019-04-28T13:31:59.313Z,-75
2019-04-28T13:34:32.628Z,-75
2019-04-28T13:37:04.378Z,-75
2019-04-28T13:39:50.616Z,-75
2019-04-28T13:42:21.480Z,-75
2019-04-28T13:45:03.370Z,-75
2019-04-28T13:47:35.416Z,-75
2019-04-28T13:50:19.322Z,-75
2019-04-28T13:52:51.058Z,-75
2019-04-28T13:55:41.636Z,-75
2019-04-28T13:58:13.382Z,-75
2019-04-28T14:00:58.773Z,-75
2019-04-28T14:03:41.367Z,-75
2019-04-28T14:06:27.521Z,-75
2019-04-28T14:08:48.761Z,-75
2019-04-28T14:11:19.805Z,-74
2019-04-28T14:13:51.466Z,-75
2019-04-28T14:16:23.388Z,-75
2019-04-28T14:18:55.052Z,-75
2019-04-28T14:21:26.800Z,-75
2019-04-28T14:23:58.381Z,-75
2019-04-28T14:26:30.042Z,-75
2019-04-28T14:29:01.771Z,-74
2019-04-28T14:31:32.484Z,-75
2019-04-28T14:34:04.475Z,-75
2019-04-28T14:36:42.357Z,-75
2019-04-28T14:39:10.788Z,-75
2019-04-28T14:41:42.365Z,-76
2019-04-28T14:44:17.319Z,-75
2019-04-28T14:46:47.774Z,-74
2019-04-28T14:49:18.496Z,-74
2019-04-28T14:51:50.300Z,-76
2019-04-28T14:54:22.361Z,-74
2019-04-28T14:56:54.315Z,-75
2019-04-28T14:59:26.434Z,-74
2019-04-28T15:02:17.648Z,-75
2019-04-28T15:05:11.003Z,-75
2019-04-28T15:07:54.377Z,-75
2019-04-28T15:10:41.682Z,-75
2019-04-28T15:13:12.561Z,-75
2019-04-28T15:15:44.640Z,-75
2019-04-28T15:18:15.626Z,-74
2019-04-28T15:20:47.428Z,-75
2019-04-28T15:23:19.257Z,-77
2019-04-28T15:25:50.804Z,-75
2019-04-28T15:28:22.469Z,-78
2019-04-28T15:30:54.374Z,-75
2019-04-28T15:33:26.260Z,-77
2019-04-28T15:35:58.055Z,-75
2019-04-28T15:38:29.753Z,-78
2019-04-28T15:41:00.496Z,-75
2019-04-28T15:43:34.588Z,-76
2019-04-28T15:46:05.731Z,-75
2019-04-28T15:48:36.427Z,-75
2019-04-28T15:51:08.313Z,-75
2019-04-28T15:53:40.334Z,-75
2019-04-28T15:56:33.897Z,-75
2019-04-28T15:59:06.644Z,-75
2019-04-28T16:01:38.333Z,-75
2019-04-28T16:04:09.992Z,-75
2019-04-28T16:06:41.794Z,-75
2019-04-28T16:09:13.994Z,-75
2019-04-28T16:11:45.970Z,-75
2019-04-28T16:14:17.759Z,-75
2019-04-28T16:16:49.777Z,-80
2019-04-28T16:19:20.564Z,-75
2019-04-28T16:21:52.758Z,-75
2019-04-28T16:24:23.630Z,-75
2019-04-28T16:26:55.398Z,-75
2019-04-28T16:29:27.765Z,-75
2019-04-28T16:31:59.762Z,-75
2019-04-28T16:34:31.390Z,-75
2019-04-28T16:37:03.293Z,-75
2019-04-28T16:39:34.846Z,-75
2019-04-28T16:42:16.998Z,-75
2019-04-28T16:44:56.766Z,-75
2019-04-28T16:47:27.562Z,-75
2019-04-28T16:49:59.296Z,-75
2019-04-28T16:52:30.845Z,-79
2019-04-28T16:55:17.337Z,-76
2019-04-28T16:57:57.654Z,-75
2019-04-28T17:00:41.454Z,-75
2019-04-28T17:03:13.303Z,-75
2019-04-28T17:05:45.667Z,-75
2019-04-28T17:08:16.647Z,-75
2019-04-28T17:10:48.515Z,-75
2019-04-28T17:13:20.369Z,-75
2019-04-28T17:15:51.998Z,-75
2019-04-28T17:18:24.303Z,-75
2019-04-28T17:20:56.054Z,-75
2019-04-28T17:23:27.769Z,-74
2019-04-28T17:25:58.489Z,-75
2019-04-28T17:28:30.401Z,-75
2019-04-28T17:31:02.028Z,-75
2019-04-28T17:33:34.301Z,-75
2019-04-28T17:36:06.022Z,-75
2019-04-28T17:38:37.753Z,-75
2019-04-28T17:41:09.757Z,-75
2019-04-28T17:43:40.474Z,-75
2019-04-28T17:46:12.273Z,-75
2019-04-28T17:48:49.628Z,-75
2019-04-28T17:51:21.300Z,-75
2019-04-28T17:53:53.317Z,-75
2019-04-28T17:56:25.126Z,-75
2019-04-28T17:58:56.744Z,-75
2019-04-28T18:01:40.622Z,-75
2019-04-28T18:04:34.304Z,-75
2019-04-28T18:07:11.607Z,-75
2019-04-28T18:09:43.344Z,-75
2019-04-28T18:12:15.061Z,-75
2019-04-28T18:14:51.317Z,-75
2019-04-28T18:17:44.678Z,-75
2019-04-28T18:20:16.368Z,-75
2019-04-28T18:22:48.345Z,-75
2019-04-28T18:25:20.049Z,-75
2019-04-28T18:27:51.699Z,-75
2019-04-28T18:30:24.313Z,-75
2019-04-28T18:33:30.460Z,-75
2019-04-28T18:36:10.324Z,-75
2019-04-28T18:38:47.826Z,-74
2019-04-28T18:41:50.466Z,-76
2019-04-28T18:44:22.641Z,-75
2019-04-28T18:46:55.064Z,-76
2019-04-28T18:49:26.733Z,-75
2019-04-28T18:51:57.457Z,-75
2019-04-28T18:54:29.544Z,-75
2019-04-28T18:57:01.376Z,-75
2019-04-28T18:59:33.326Z,-75
2019-04-28T19:02:32.541Z,-75
2019-04-28T19:05:04.349Z,-75
2019-04-28T19:08:09.879Z,-75
2019-04-28T19:10:58.672Z,-75
2019-04-28T19:13:32.715Z,-76
2019-04-28T19:16:20.773Z,-76
2019-04-28T19:18:54.309Z,-75
2019-04-28T19:21:25.885Z,-75
2019-04-28T19:23:57.761Z,-76
2019-04-28T19:26:28.477Z,-75
2019-04-28T19:29:00.325Z,-75
2019-04-28T19:31:32.262Z,-75
2019-04-28T19:34:04.882Z,-70
2019-04-28T19:36:37.342Z,-70
2019-04-28T19:39:26.069Z,-69
2019-04-28T19:42:02.709Z,-70
2019-04-28T19:44:34.972Z,-70
2019-04-28T19:47:25.822Z,-69
2019-04-28T19:50:14.329Z,-70
2019-04-28T19:52:47.365Z,-70
2019-04-28T19:55:29.314Z,-70
2019-04-28T19:58:24.154Z,-70
2019-04-28T20:01:07.532Z,-70
2019-04-28T20:03:40.796Z,-70
2019-04-28T20:06:14.748Z,-70
2019-04-28T20:08:47.418Z,-70
2019-04-28T20:11:20.846Z,-71
2019-04-28T20:14:09.628Z,-71
2019-04-28T20:16:46.449Z,-70
2019-04-28T20:19:36.390Z,-70
2019-04-28T20:22:08.343Z,-70
2019-04-28T20:24:47.257Z,-70
2019-04-28T20:27:14.913Z,-70
2019-04-28T20:29:47.393Z,-70
2019-04-28T20:32:20.063Z,-70
2019-04-28T20:34:53.385Z,-70
2019-04-28T20:37:34.328Z,-70
2019-04-28T20:40:13.657Z,-70
2019-04-28T20:42:53.638Z,-70
2019-04-28T20:45:32.654Z,-70
2019-04-28T20:48:04.731Z,-70
2019-04-28T20:50:39.088Z,-69
2019-04-28T20:53:12.374Z,-70
2019-04-28T20:55:44.955Z,-70
2019-04-28T20:58:18.082Z,-70
2019-04-28T21:00:51.078Z,-70
2019-04-28T21:03:23.337Z,-70
2019-04-28T21:05:55.865Z,-70
2019-04-28T21:08:28.332Z,-70
2019-04-28T21:11:00.849Z,-70
2019-04-28T21:13:32.958Z,-70
2019-04-28T21:16:05.480Z,-70
2019-04-28T21:18:38.381Z,-70
2019-04-28T21:21:10.998Z,-70
2019-04-28T21:23:43.333Z,-70
2019-04-28T21:26:16.157Z,-70
2019-04-28T21:28:49.334Z,-70
2019-04-28T21:31:21.817Z,-71
2019-04-28T21:33:54.882Z,-71
2019-04-28T21:36:28.284Z,-72
2019-04-28T21:39:00.867Z,-71
2019-04-28T21:41:33.116Z,-71
2019-04-28T21:44:23.143Z,-71
2019-04-28T21:47:20.615Z,-70
2019-04-28T21:49:52.908Z,-71
2019-04-28T21:52:25.854Z,-71
2019-04-28T21:54:58.017Z,-71
2019-04-28T21:57:30.335Z,-71
2019-04-28T22:00:02.572Z,-71
2019-04-28T22:02:34.881Z,-71
2019-04-28T22:05:07.293Z,-71
2019-04-28T22:07:39.860Z,-70
2019-04-28T22:10:12.334Z,-71
2019-04-28T22:12:45.081Z,-71
2019-04-28T22:15:17.809Z,-71
2019-04-28T22:17:50.114Z,-71
2019-04-28T22:20:23.344Z,-70
2019-04-28T22:22:58.324Z,-71
2019-04-28T22:25:30.934Z,-70
2019-04-28T22:28:02.824Z,-70
2019-04-28T22:30:35.330Z,-70
2019-04-28T22:33:08.052Z,-71
2019-04-28T22:35:40.299Z,-71
2019-04-28T22:38:12.864Z,-71
2019-04-28T22:40:45.126Z,-71
2019-04-28T22:43:17.843Z,-71
2019-04-28T22:45:49.869Z,-71
2019-04-28T22:48:23.632Z,-71
2019-04-28T22:50:55.929Z,-71
2019-04-28T22:53:34.485Z,-71
2019-04-28T22:56:24.300Z,-71
2019-04-28T22:59:02.845Z,-70
2019-04-28T23:01:38.828Z,-71
2019-04-28T23:04:16.107Z,-71
2019-04-28T23:06:48.868Z,-70
2019-04-28T23:09:21.107Z,-70
2019-04-28T23:11:53.839Z,-71
2019-04-28T23:14:26.331Z,-71
2019-04-28T23:16:59.050Z,-71
2019-04-28T23:19:34.085Z,-71
2019-04-28T23:22:21.110Z,-70
2019-04-28T23:24:53.371Z,-71
2019-04-28T23:27:26.363Z,-71
2019-04-28T23:29:58.889Z,-70
2019-04-28T23:32:31.804Z,-71
2019-04-28T23:35:04.330Z,-71
2019-04-28T23:37:36.877Z,-71
2019-04-28T23:40:09.852Z,-71
2019-04-28T23:42:47.114Z,-71
2019-04-28T23:45:19.449Z,-71
2019-04-28T23:47:51.859Z,-71
2019-04-28T23:50:31.052Z,-70
2019-04-28T23:53:07.012Z,-70
2019-04-28T23:55:39.496Z,-70
2019-04-28T23:58:12.292Z,-70
